createdAt,value
2019-04-25T00:00:51.847Z,32.39
2019-04-25T00:03:55.754Z,32.39
2019-04-25T00:06:59.283Z,32.42
2019-04-25T00:10:02.797Z,32.42
2019-04-25T00:13:06.880Z,32.47
2019-04-25T00:16:11.693Z,32.45
2019-04-25T00:19:15.412Z,32.42
2019-04-25T00:22:26.312Z,32.43
2019-04-25T00:25:57.811Z,32.42
2019-04-25T00:29:01.963Z,32.46
2019-04-25T00:32:06.622Z,32.46
2019-04-25T00:35:11.725Z,32.44
2019-04-25T00:38:15.402Z,32.43
2019-04-25T00:41:18.836Z,32.46
2019-04-25T00:44:22.442Z,32.42
2019-04-25T00:47:26.956Z,32.43
2019-04-25T00:50:31.916Z,32.45
2019-04-25T00:53:36.433Z,32.48
2019-04-25T00:56:39.846Z,32.45
2019-04-25T00:59:54.081Z,32.44
2019-04-25T01:02:57.783Z,32.44
2019-04-25T01:06:03.486Z,32.44
2019-04-25T01:09:12.473Z,32.44
2019-04-25T01:12:16.030Z,32.46
2019-04-25T01:15:21.387Z,32.49
2019-04-25T01:18:25.209Z,32.45
2019-04-25T01:21:28.798Z,32.47
2019-04-25T01:24:33.913Z,32.48
2019-04-25T01:27:37.576Z,32.48
2019-04-25T01:30:41.178Z,32.47
2019-04-25T01:33:44.677Z,32.48
2019-04-25T01:36:56.992Z,32.49
2019-04-25T01:40:26.820Z,32.51
2019-04-25T01:43:45.217Z,32.52
2019-04-25T01:46:48.649Z,32.52
2019-04-25T01:49:52.841Z,32.50
2019-04-25T01:52:57.497Z,32.53
2019-04-25T01:56:05.250Z,32.54
2019-04-25T01:59:07.168Z,32.51
2019-04-25T02:02:14.088Z,32.53
2019-04-25T02:05:17.561Z,32.51
2019-04-25T02:08:21.364Z,32.55
2019-04-25T02:11:43.953Z,32.51
2019-04-25T02:14:48.883Z,32.52
2019-04-25T02:17:57.175Z,32.57
2019-04-25T02:21:01.332Z,32.56
2019-04-25T02:24:05.701Z,32.52
2019-04-25T02:27:09.304Z,32.53
2019-04-25T02:30:15.500Z,32.58
2019-04-25T02:33:19.256Z,32.56
2019-04-25T02:36:24.688Z,32.56
2019-04-25T02:39:28.991Z,32.56
2019-04-25T02:42:34.343Z,32.56
2019-04-25T02:46:08.074Z,32.58
2019-04-25T02:49:36.885Z,32.57
2019-04-25T02:52:40.282Z,32.61
2019-04-25T02:55:44.806Z,32.60
2019-04-25T02:58:49.755Z,32.60
2019-04-25T03:01:54.129Z,32.61
2019-04-25T03:04:59.292Z,32.58
2019-04-25T03:08:08.004Z,32.59
2019-04-25T03:11:09.355Z,32.59
2019-04-25T03:14:14.685Z,32.60
2019-04-25T03:17:18.319Z,32.60
2019-04-25T03:20:40.167Z,32.61
2019-04-25T03:23:46.333Z,32.60
2019-04-25T03:26:49.250Z,32.62
2019-04-25T03:29:54.147Z,32.63
2019-04-25T03:32:58.752Z,32.63
2019-04-25T03:36:03.540Z,32.62
2019-04-25T03:39:08.695Z,32.62
2019-04-25T03:42:13.990Z,32.63
2019-04-25T03:45:17.693Z,32.61
2019-04-25T03:48:21.173Z,32.62
2019-04-25T03:51:24.674Z,32.61
2019-04-25T03:54:28.178Z,32.59
2019-04-25T03:57:33.095Z,32.64
2019-04-25T04:00:36.619Z,32.60
2019-04-25T04:03:40.127Z,32.64
2019-04-25T04:06:44.087Z,32.64
2019-04-25T04:09:47.637Z,32.65
2019-04-25T04:12:51.235Z,32.64
2019-04-25T04:15:54.738Z,32.67
2019-04-25T04:18:58.664Z,32.64
2019-04-25T04:22:16.251Z,32.65
2019-04-25T04:25:20.376Z,32.65
2019-04-25T04:28:23.786Z,32.68
2019-04-25T04:31:27.526Z,32.66
2019-04-25T04:34:31.015Z,32.66
2019-04-25T04:37:34.596Z,32.66
2019-04-25T04:40:38.097Z,32.67
2019-04-25T04:43:41.514Z,32.68
2019-04-25T04:46:45.131Z,32.68
2019-04-25T04:49:48.608Z,32.67
2019-04-25T04:52:53.922Z,32.69
2019-04-25T04:55:57.456Z,32.68
2019-04-25T04:59:00.971Z,32.69
2019-04-25T05:02:33.364Z,32.69
2019-04-25T05:05:51.240Z,32.68
2019-04-25T05:08:58.576Z,32.69
2019-04-25T05:12:04.081Z,32.70
2019-04-25T05:15:07.606Z,32.71
2019-04-25T05:18:11.504Z,32.70
2019-04-25T05:21:17.149Z,32.71
2019-04-25T05:24:20.879Z,32.68
2019-04-25T05:27:37.310Z,32.69
2019-04-25T05:30:37.629Z,32.68
2019-04-25T05:33:41.251Z,32.68
2019-04-25T05:36:45.002Z,32.70
2019-04-25T05:39:48.524Z,32.70
2019-04-25T05:43:00.861Z,32.70
2019-04-25T05:46:06.396Z,32.71
2019-04-25T05:49:09.884Z,32.70
2019-04-25T05:52:13.963Z,32.72
2019-04-25T05:55:19.883Z,32.70
2019-04-25T05:58:24.838Z,32.70
2019-04-25T06:01:30.136Z,32.71
2019-04-25T06:04:33.719Z,32.72
2019-04-25T06:07:37.258Z,32.71
2019-04-25T06:10:48.177Z,32.70
2019-04-25T06:14:01.418Z,32.69
2019-04-25T06:17:08.175Z,32.72
2019-04-25T06:20:13.442Z,32.71
2019-04-25T06:23:42.005Z,32.70
2019-04-25T06:26:55.636Z,32.71
2019-04-25T06:30:04.351Z,32.72
2019-04-25T06:33:08.948Z,32.71
2019-04-25T06:36:13.886Z,32.72
2019-04-25T06:39:17.529Z,32.72
2019-04-25T06:42:21.149Z,32.73
2019-04-25T06:45:34.504Z,32.70
2019-04-25T06:48:45.675Z,32.71
2019-04-25T06:51:50.251Z,32.69
2019-04-25T06:54:53.655Z,32.70
2019-04-25T06:58:08.880Z,32.70
2019-04-25T07:01:03.422Z,32.71
2019-04-25T07:04:07.228Z,32.93
2019-04-25T07:07:13.099Z,32.88
2019-04-25T07:10:15.935Z,32.92
2019-04-25T07:13:19.336Z,32.88
2019-04-25T07:16:24.201Z,32.88
2019-04-25T07:19:30.318Z,32.92
2019-04-25T07:22:35.306Z,32.89
2019-04-25T07:25:43.768Z,32.91
2019-04-25T07:28:59.091Z,32.90
2019-04-25T07:32:14.490Z,32.88
2019-04-25T07:35:18.158Z,32.90
2019-04-25T07:38:21.650Z,32.91
2019-04-25T07:41:26.009Z,32.90
2019-04-25T07:44:45.370Z,32.85
2019-04-25T07:47:35.455Z,32.81
2019-04-25T07:50:40.976Z,32.80
2019-04-25T07:53:44.479Z,32.77
2019-04-25T07:56:49.004Z,32.83
2019-04-25T07:59:53.718Z,32.89
2019-04-25T08:02:57.450Z,32.89
2019-04-25T08:06:03.073Z,32.84
2019-04-25T08:09:08.620Z,32.86
2019-04-25T08:12:13.342Z,32.86
2019-04-25T08:15:34.935Z,32.89
2019-04-25T08:18:38.977Z,32.98
2019-04-25T08:21:44.955Z,33.02
2019-04-25T08:24:48.515Z,32.95
2019-04-25T08:27:53.528Z,32.93
2019-04-25T08:30:58.439Z,32.90
2019-04-25T08:34:03.594Z,32.92
2019-04-25T08:37:17.342Z,32.92
2019-04-25T08:40:13.709Z,32.91
2019-04-25T08:43:17.362Z,32.90
2019-04-25T08:46:20.862Z,32.91
2019-04-25T08:49:44.286Z,32.89
2019-04-25T08:52:48.962Z,32.86
2019-04-25T08:56:03.949Z,32.87
2019-04-25T08:59:34.182Z,32.87
2019-04-25T09:02:50.653Z,32.88
2019-04-25T09:05:54.456Z,32.89
2019-04-25T09:08:57.861Z,32.89
2019-04-25T09:12:01.373Z,32.93
2019-04-25T09:15:06.002Z,32.91
2019-04-25T09:18:09.606Z,32.88
2019-04-25T09:21:13.783Z,32.86
2019-04-25T09:24:17.411Z,32.85
2019-04-25T09:27:23.500Z,32.88
2019-04-25T09:30:27.093Z,32.83
2019-04-25T09:33:30.596Z,32.80
2019-04-25T09:36:34.082Z,32.75
2019-04-25T09:39:53.754Z,32.75
2019-04-25T09:42:57.514Z,32.73
2019-04-25T09:46:13.152Z,32.74
2019-04-25T09:49:23.790Z,32.69
2019-04-25T09:52:27.424Z,32.63
2019-04-25T09:55:44.412Z,32.68
2019-04-25T09:59:04.747Z,32.69
2019-04-25T10:02:08.518Z,32.73
2019-04-25T10:05:11.920Z,32.76
2019-04-25T10:08:15.506Z,32.67
2019-04-25T10:11:18.957Z,32.65
2019-04-25T10:14:47.570Z,32.68
2019-04-25T10:17:50.333Z,32.65
2019-04-25T10:20:54.224Z,32.66
2019-04-25T10:23:57.749Z,32.63
2019-04-25T10:27:01.262Z,32.65
2019-04-25T10:30:16.854Z,32.61
2019-04-25T10:33:14.196Z,32.52
2019-04-25T10:36:17.697Z,32.55
2019-04-25T10:39:22.546Z,32.59
2019-04-25T10:42:26.122Z,32.54
2019-04-25T10:45:29.625Z,32.50
2019-04-25T10:48:34.393Z,32.48
2019-04-25T10:51:38.062Z,32.39
2019-04-25T10:54:41.559Z,32.42
2019-04-25T10:57:45.570Z,32.43
2019-04-25T11:00:51.353Z,32.45
2019-04-25T11:04:04.731Z,32.50
2019-04-25T11:07:08.281Z,32.50
2019-04-25T11:10:12.057Z,32.51
2019-04-25T11:13:15.601Z,32.55
2019-04-25T11:16:19.272Z,32.48
2019-04-25T11:19:23.875Z,32.46
2019-04-25T11:22:27.438Z,32.44
2019-04-25T11:25:30.902Z,32.45
2019-04-25T11:28:35.553Z,32.62
2019-04-25T11:31:47.381Z,32.67
2019-04-25T11:34:51.122Z,32.62
2019-04-25T11:37:56.913Z,32.69
2019-04-25T11:41:07.795Z,32.65
2019-04-25T11:44:11.371Z,32.59
2019-04-25T11:47:15.492Z,32.57
2019-04-25T11:50:20.219Z,32.55
2019-04-25T11:53:25.042Z,32.53
2019-04-25T11:56:28.659Z,32.50
2019-04-25T11:59:34.153Z,32.50
2019-04-25T12:02:37.735Z,32.49
2019-04-25T12:05:41.196Z,32.50
2019-04-25T12:08:46.573Z,32.49
2019-04-25T12:11:49.944Z,32.49
2019-04-25T12:14:54.355Z,32.48
2019-04-25T12:17:58.493Z,32.44
2019-04-25T12:21:02.001Z,32.48
2019-04-25T12:24:06.133Z,32.46
2019-04-25T12:27:09.642Z,32.44
2019-04-25T12:30:13.986Z,32.41
2019-04-25T12:33:20.964Z,32.42
2019-04-25T12:36:24.009Z,32.37
2019-04-25T12:39:27.844Z,32.37
2019-04-25T12:42:31.389Z,32.38
2019-04-25T12:45:47.557Z,32.35
2019-04-25T12:48:51.714Z,32.34
2019-04-25T12:51:55.218Z,32.31
2019-04-25T12:54:58.723Z,32.29
2019-04-25T12:58:03.509Z,32.26
2019-04-25T13:01:07.375Z,32.24
2019-04-25T13:04:10.876Z,32.18
2019-04-25T13:07:14.439Z,32.12
2019-04-25T13:10:17.936Z,32.08
2019-04-25T13:13:22.266Z,32.04
2019-04-25T13:16:26.989Z,32.04
2019-04-25T13:19:31.453Z,32.05
2019-04-25T13:22:40.472Z,32.15
2019-04-25T13:25:44.223Z,32.15
2019-04-25T13:29:21.291Z,32.19
2019-04-25T13:32:47.921Z,32.12
2019-04-25T13:35:57.640Z,32.03
2019-04-25T13:39:02.239Z,32.03
2019-04-25T13:42:06.747Z,32.06
2019-04-25T13:45:10.331Z,31.96
2019-04-25T13:48:13.899Z,31.92
2019-04-25T13:51:17.328Z,31.98
2019-04-25T13:54:20.926Z,31.97
2019-04-25T13:57:26.212Z,31.96
2019-04-25T14:00:30.838Z,31.96
2019-04-25T14:03:35.698Z,31.97
2019-04-25T14:06:39.358Z,31.94
2019-04-25T14:09:44.612Z,31.96
2019-04-25T14:12:48.338Z,31.93
2019-04-25T14:16:09.713Z,31.96
2019-04-25T14:19:44.648Z,31.91
2019-04-25T14:22:48.515Z,31.88
2019-04-25T14:25:52.990Z,31.83
2019-04-25T14:28:56.483Z,31.84
2019-04-25T14:31:59.984Z,31.81
2019-04-25T14:35:03.637Z,31.83
2019-04-25T14:38:07.204Z,31.81
2019-04-25T14:41:12.810Z,31.79
2019-04-25T14:44:16.236Z,31.77
2019-04-25T14:47:20.768Z,31.72
2019-04-25T14:50:25.516Z,31.72
2019-04-25T14:53:29.208Z,31.70
2019-04-25T14:56:43.102Z,31.71
2019-04-25T14:59:46.736Z,31.68
2019-04-25T15:02:50.275Z,31.68
2019-04-25T15:05:53.858Z,31.63
2019-04-25T15:08:57.362Z,31.59
2019-04-25T15:12:01.887Z,31.55
2019-04-25T15:15:06.510Z,31.56
2019-04-25T15:18:10.139Z,31.57
2019-04-25T15:21:13.634Z,31.56
2019-04-25T15:24:17.221Z,31.53
2019-04-25T15:27:20.823Z,31.48
2019-04-25T15:30:29.273Z,31.48
2019-04-25T15:33:33.135Z,31.51
2019-04-25T15:36:42.834Z,31.51
2019-04-25T15:39:58.089Z,31.51
2019-04-25T15:43:18.124Z,31.50
2019-04-25T15:46:25.983Z,31.47
2019-04-25T15:49:31.257Z,31.45
2019-04-25T15:52:34.857Z,31.49
2019-04-25T15:55:38.664Z,31.50
2019-04-25T15:58:44.909Z,31.44
2019-04-25T16:01:48.518Z,31.45
2019-04-25T16:04:52.000Z,31.45
2019-04-25T16:07:56.557Z,31.47
2019-04-25T16:11:00.017Z,31.48
2019-04-25T16:14:03.407Z,31.52
2019-04-25T16:17:07.038Z,31.50
2019-04-25T16:20:10.576Z,31.50
2019-04-25T16:23:14.080Z,31.54
2019-04-25T16:26:18.889Z,31.52
2019-04-25T16:29:23.262Z,31.54
2019-04-25T16:32:26.813Z,31.53
2019-04-25T16:35:33.502Z,31.47
2019-04-25T16:38:37.039Z,31.48
2019-04-25T16:41:44.046Z,31.45
2019-04-25T16:44:50.516Z,31.40
2019-04-25T16:47:56.719Z,31.48
2019-04-25T16:51:00.349Z,31.44
2019-04-25T16:54:06.040Z,31.51
2019-04-25T16:57:12.220Z,31.49
2019-04-25T17:00:39.031Z,31.55
2019-04-25T17:03:44.218Z,31.56
2019-04-25T17:06:48.720Z,31.60
2019-04-25T17:09:52.329Z,31.65
2019-04-25T17:12:55.905Z,31.62
2019-04-25T17:16:10.612Z,31.62
2019-04-25T17:19:18.684Z,31.67
2019-04-25T17:22:22.194Z,31.67
2019-04-25T17:25:26.085Z,31.68
2019-04-25T17:28:31.397Z,31.71
2019-04-25T17:32:02.098Z,31.75
2019-04-25T17:35:23.112Z,31.77
2019-04-25T17:38:48.932Z,31.82
2019-04-25T17:41:52.423Z,31.87
2019-04-25T17:44:55.921Z,31.88
2019-04-25T17:47:59.449Z,31.88
2019-04-25T17:51:02.940Z,31.90
2019-04-25T17:54:06.920Z,31.97
2019-04-25T17:57:11.366Z,31.97
2019-04-25T18:00:23.089Z,32.00
2019-04-25T18:03:27.659Z,31.96
2019-04-25T18:06:33.285Z,32.00
2019-04-25T18:09:38.681Z,32.00
2019-04-25T18:12:42.275Z,32.02
2019-04-25T18:16:16.774Z,32.02
2019-04-25T18:19:25.196Z,32.02
2019-04-25T18:22:56.945Z,32.06
2019-04-25T18:26:07.886Z,32.10
2019-04-25T18:29:12.844Z,32.10
2019-04-25T18:32:16.430Z,32.06
2019-04-25T18:35:25.131Z,32.05
2019-04-25T18:38:37.549Z,32.07
2019-04-25T18:41:46.670Z,32.04
2019-04-25T18:44:50.230Z,32.08
2019-04-25T18:47:53.838Z,32.04
2019-04-25T18:50:57.376Z,32.11
2019-04-25T18:54:39.436Z,32.14
2019-04-25T18:57:47.288Z,32.22
2019-04-25T19:01:05.515Z,32.24
2019-04-25T19:04:33.948Z,32.19
2019-04-25T19:07:43.540Z,32.20
2019-04-25T19:10:47.177Z,32.23
2019-04-25T19:13:51.811Z,32.22
2019-04-25T19:16:55.295Z,32.24
2019-04-25T19:19:58.798Z,32.25
2019-04-25T19:23:04.348Z,32.27
2019-04-25T19:26:08.861Z,32.25
2019-04-25T19:29:12.393Z,32.28
2019-04-25T19:32:15.887Z,32.27
2019-04-25T19:35:19.377Z,32.31
2019-04-25T19:38:22.879Z,32.32
2019-04-25T19:41:32.435Z,32.32
2019-04-25T19:44:36.023Z,32.39
2019-04-25T19:47:41.356Z,32.37
2019-04-25T19:50:45.900Z,32.40
2019-04-25T19:53:49.409Z,32.41
2019-04-25T19:56:52.815Z,32.41
2019-04-25T19:59:56.403Z,32.40
2019-04-25T20:03:09.447Z,32.42
2019-04-25T20:06:34.889Z,32.44
2019-04-25T20:10:03.565Z,32.44
2019-04-25T20:13:08.170Z,32.41
2019-04-25T20:16:12.130Z,32.38
2019-04-25T20:19:15.560Z,32.40
2019-04-25T20:22:19.071Z,32.34
2019-04-25T20:25:22.592Z,32.28
2019-04-25T20:28:26.088Z,32.27
2019-04-25T20:31:29.655Z,32.25
2019-04-25T20:34:33.075Z,32.22
2019-04-25T20:37:36.577Z,32.22
2019-04-25T20:40:40.077Z,32.23
2019-04-25T20:43:43.582Z,32.26
2019-04-25T20:46:47.080Z,32.25
2019-04-25T20:49:51.503Z,32.25
2019-04-25T20:52:55.079Z,32.21
2019-04-25T20:55:58.508Z,32.21
2019-04-25T20:59:01.996Z,32.21
2019-04-25T21:02:07.431Z,32.29
2019-04-25T21:05:10.849Z,32.23
2019-04-25T21:08:14.244Z,32.22
2019-04-25T21:11:17.676Z,32.25
2019-04-25T21:14:27.004Z,32.21
2019-04-25T21:17:36.161Z,32.24
2019-04-25T21:20:39.616Z,32.22
2019-04-25T21:23:43.032Z,32.28
2019-04-25T21:26:46.632Z,32.21
2019-04-25T21:29:50.023Z,32.24
2019-04-25T21:32:55.546Z,32.23
2019-04-25T21:36:05.127Z,32.23
2019-04-25T21:39:14.983Z,32.24
2019-04-25T21:42:35.134Z,32.24
2019-04-25T21:45:38.768Z,32.22
2019-04-25T21:48:42.461Z,32.25
2019-04-25T21:51:45.994Z,32.27
2019-04-25T21:54:49.461Z,32.28
2019-04-25T21:57:53.597Z,32.26
2019-04-25T22:01:15.659Z,32.26
2019-04-25T22:04:19.114Z,32.25
2019-04-25T22:07:23.055Z,32.26
2019-04-25T22:10:28.799Z,32.28
2019-04-25T22:13:32.322Z,32.29
2019-04-25T22:16:37.099Z,32.30
2019-04-25T22:19:40.934Z,32.29
2019-04-25T22:22:44.858Z,32.30
2019-04-25T22:25:48.339Z,32.28
2019-04-25T22:28:52.046Z,32.30
2019-04-25T22:32:08.984Z,32.30
2019-04-25T22:35:20.461Z,32.31
2019-04-25T22:38:25.079Z,32.30
2019-04-25T22:41:29.479Z,32.31
2019-04-25T22:44:34.431Z,32.31
2019-04-25T22:47:38.157Z,32.33
2019-04-25T22:50:41.646Z,32.31
2019-04-25T22:53:46.670Z,32.34
2019-04-25T22:56:50.169Z,32.35
2019-04-25T22:59:53.784Z,32.34
2019-04-25T23:03:05.375Z,32.35
2019-04-25T23:06:09.651Z,32.33
2019-04-25T23:09:13.551Z,32.35
2019-04-25T23:12:17.045Z,32.36
2019-04-25T23:15:20.688Z,32.37
2019-04-25T23:18:24.702Z,32.36
2019-04-25T23:21:28.292Z,32.38
2019-04-25T23:24:34.537Z,32.36
2019-04-25T23:28:03.669Z,32.36
2019-04-25T23:31:15.141Z,32.37
2019-04-25T23:34:18.743Z,32.38
2019-04-25T23:37:22.320Z,32.42
2019-04-25T23:40:25.817Z,32.38
2019-04-25T23:43:29.751Z,32.38
2019-04-25T23:46:33.310Z,32.40
2019-04-25T23:49:36.981Z,32.42
2019-04-25T23:52:40.746Z,32.43
2019-04-25T23:55:44.176Z,32.42
2019-04-25T23:58:47.618Z,32.43
